Time;durP1;ratioP1;P1;durP2;ratioP2;P2;SDS_P1;SDS_P2;PMS_P1;PMS_P2;Temp;Humidity;BMP_temperature;BMP_pressure;BME280_temperature;BME280_humidity;BME280_pressure;Samples;Min_cycle;Max_cycle;Signal;HPM_P1;HPM_P2
2023/05/26 00:00:51;;;;;;;9.73;6.17;;;15.50;90.70;;;;;;5040745;28;20445;-70
2023/05/26 00:03:36;;;;;;;9.50;6.73;;;15.50;90.80;;;;;;5047502;28;20447;-70
2023/05/26 00:06:22;;;;;;;9.87;7.50;;;15.40;91.00;;;;;;5044057;28;20587;-71
2023/05/26 00:09:09;;;;;;;10.50;6.80;;;15.40;90.90;;;;;;5040418;28;20470;-71
2023/05/26 00:11:54;;;;;;;12.90;7.60;;;15.40;90.90;;;;;;5038154;28;20530;-71
2023/05/26 00:14:40;;;;;;;14.43;6.87;;;15.40;91.00;;;;;;5045080;28;20821;-71
2023/05/26 00:17:26;;;;;;;11.23;7.50;;;15.40;91.30;;;;;;5045278;28;20443;-71
2023/05/26 00:20:12;;;;;;;13.33;6.90;;;15.30;91.50;;;;;;5046683;28;20454;-70
2023/05/26 00:22:57;;;;;;;16.70;7.77;;;15.30;91.80;;;;;;5038754;28;20955;-71
2023/05/26 00:25:44;;;;;;;12.93;7.07;;;15.20;91.80;;;;;;5043379;28;20474;-70
2023/05/26 00:28:30;;;;;;;13.90;6.80;;;15.20;92.30;;;;;;5046450;28;20487;-71
2023/05/26 00:31:15;;;;;;;12.07;7.57;;;15.20;92.60;;;;;;5041367;28;20833;-70
2023/05/26 00:34:01;;;;;;;11.93;7.50;;;15.10;92.80;;;;;;5042951;28;20450;-69
2023/05/26 00:36:47;;;;;;;12.90;7.37;;;15.20;92.70;;;;;;5037975;28;20827;-70
2023/05/26 00:39:32;;;;;;;17.77;9.67;;;15.20;92.50;;;;;;5047493;28;20544;-70
2023/05/26 00:42:20;;;;;;;10.40;7.70;;;15.20;92.40;;;;;;5041785;28;20590;-70
2023/05/26 00:45:06;;;;;;;9.97;7.33;;;15.10;92.60;;;;;;5047467;28;20608;-71
2023/05/26 00:47:52;;;;;;;12.77;7.10;;;15.20;92.70;;;;;;5045464;28;21061;-71
2023/05/26 00:50:38;;;;;;;12.43;7.60;;;15.10;92.80;;;;;;5041052;28;20509;-70
2023/05/26 00:53:23;;;;;;;17.43;8.40;;;15.00;92.90;;;;;;5048335;28;20455;-71
2023/05/26 00:56:11;;;;;;;20.80;8.77;;;15.00;93.20;;;;;;5041067;28;20502;-71
2023/05/26 00:58:59;;;;;;;11.60;8.17;;;15.00;93.30;;;;;;5046908;28;20422;-70
2023/05/26 01:01:44;;;;;;;19.87;7.70;;;14.90;93.90;;;;;;5037873;28;20429;-71
2023/05/26 01:04:30;;;;;;;14.53;8.10;;;14.90;94.30;;;;;;5048691;28;20454;-71
2023/05/26 01:07:16;;;;;;;10.50;8.03;;;14.90;93.90;;;;;;5049447;28;20482;-71
2023/05/26 01:10:01;;;;;;;14.70;7.20;;;14.90;94.40;;;;;;5043815;28;21170;-71
2023/05/26 01:12:51;;;;;;;12.73;7.53;;;14.90;94.10;;;;;;5044683;28;20433;-71
2023/05/26 01:15:46;;;;;;;14.70;8.70;;;14.90;94.10;;;;;;5043108;28;20452;-70
2023/05/26 01:18:41;;;;;;;14.47;8.80;;;14.90;94.30;;;;;;5045569;28;20443;-70
2023/05/26 01:21:29;;;;;;;14.20;8.30;;;14.90;94.00;;;;;;5045306;28;20450;-71
2023/05/26 01:24:28;;;;;;;12.90;7.03;;;14.90;94.10;;;;;;5041962;28;20492;-71
2023/05/26 01:27:24;;;;;;;12.97;7.97;;;14.80;94.30;;;;;;5044208;28;20440;-71
2023/05/26 01:30:12;;;;;;;14.63;7.10;;;14.70;94.70;;;;;;5040621;28;21014;-70
2023/05/26 01:32:57;;;;;;;14.13;8.47;;;14.80;95.00;;;;;;5044561;28;20437;-70
2023/05/26 01:35:43;;;;;;;10.87;6.50;;;14.70;94.80;;;;;;5046384;28;20617;-71
2023/05/26 01:38:29;;;;;;;16.43;7.57;;;14.70;95.50;;;;;;5044555;28;20451;-71
2023/05/26 01:41:24;;;;;;;9.30;6.53;;;14.70;95.50;;;;;;5038533;28;20506;-71
2023/05/26 01:44:13;;;;;;;19.20;9.47;;;14.80;95.70;;;;;;5046094;28;20451;-71
2023/05/26 01:47:02;;;;;;;12.63;7.20;;;14.80;95.30;;;;;;5042763;28;20493;-71
2023/05/26 01:49:48;;;;;;;14.03;8.10;;;14.80;95.40;;;;;;5043902;28;20455;-70
2023/05/26 01:52:34;;;;;;;10.53;7.00;;;14.80;95.30;;;;;;5037483;28;20646;-71
2023/05/26 01:55:22;;;;;;;17.10;9.30;;;14.80;95.30;;;;;;5042771;28;20832;-70
2023/05/26 01:58:09;;;;;;;10.10;6.93;;;14.80;95.40;;;;;;5048213;28;20582;-71
2023/05/26 02:00:54;;;;;;;13.37;7.80;;;14.70;95.90;;;;;;5043029;28;20529;-70
2023/05/26 02:03:42;;;;;;;11.13;8.10;;;14.70;95.90;;;;;;5045843;28;20454;-71
2023/05/26 02:06:28;;;;;;;15.23;7.67;;;14.60;96.20;;;;;;5044635;28;20474;-71
2023/05/26 02:09:13;;;;;;;11.30;7.13;;;14.60;96.90;;;;;;5041695;28;20440;-71
2023/05/26 02:11:59;;;;;;;16.33;8.23;;;14.60;96.90;;;;;;5041946;28;20460;-71
2023/05/26 02:14:45;;;;;;;13.50;7.93;;;14.60;96.90;;;;;;5047081;28;20499;-71
2023/05/26 02:17:30;;;;;;;12.23;7.87;;;14.70;96.70;;;;;;5045316;28;20490;-71
2023/05/26 02:20:18;;;;;;;10.47;7.80;;;14.70;96.70;;;;;;5044331;28;20959;-71
2023/05/26 02:23:03;;;;;;;19.43;9.50;;;14.60;96.70;;;;;;5052112;28;20425;-72
2023/05/26 02:25:48;;;;;;;13.43;7.43;;;14.60;96.50;;;;;;5046467;28;20487;-70
2023/05/26 02:28:34;;;;;;;11.93;7.40;;;14.60;96.90;;;;;;5046720;28;20464;-71
2023/05/26 02:31:20;;;;;;;11.20;8.00;;;14.60;96.90;;;;;;5049631;28;20790;-71
2023/05/26 02:34:06;;;;;;;16.13;8.27;;;14.60;96.90;;;;;;5044213;28;20446;-73
2023/05/26 02:36:55;;;;;;;15.73;8.33;;;14.50;97.10;;;;;;5041318;28;20906;-71
2023/05/26 02:39:40;;;;;;;13.20;8.03;;;14.50;97.00;;;;;;5046402;28;20443;-70
2023/05/26 02:42:26;;;;;;;12.20;8.30;;;14.60;96.90;;;;;;5043797;28;20461;-70
2023/05/26 02:45:12;;;;;;;13.30;8.40;;;14.50;96.90;;;;;;5050217;28;20531;-71
2023/05/26 02:47:57;;;;;;;23.53;8.70;;;14.50;97.20;;;;;;5044144;28;20653;-70
2023/05/26 02:50:43;;;;;;;13.00;8.20;;;14.40;98.00;;;;;;5048930;28;20443;-71
2023/05/26 02:53:29;;;;;;;12.80;7.80;;;14.30;98.70;;;;;;5050799;28;20507;-71
2023/05/26 02:56:15;;;;;;;11.70;6.70;;;14.20;99.80;;;;;;5043884;28;20544;-71
2023/05/26 02:59:01;;;;;;;12.20;7.80;;;14.10;99.90;;;;;;5047657;28;20504;-71
2023/05/26 03:01:46;;;;;;;13.63;7.73;;;13.90;99.90;;;;;;5045969;28;20462;-70
2023/05/26 03:04:32;;;;;;;20.40;9.17;;;13.80;99.90;;;;;;5049489;28;20445;-70
2023/05/26 03:07:17;;;;;;;14.50;8.70;;;13.60;99.90;;;;;;5047330;28;20470;-70
2023/05/26 03:10:05;;;;;;;18.47;8.20;;;13.50;99.90;;;;;;5049208;28;20487;-70
2023/05/26 03:12:51;;;;;;;15.13;8.40;;;13.40;99.90;;;;;;5045519;28;20496;-71
2023/05/26 03:15:37;;;;;;;15.10;8.60;;;13.30;99.90;;;;;;5049885;28;20574;-71
2023/05/26 03:18:22;;;;;;;10.20;8.37;;;13.30;99.90;;;;;;5038825;28;20498;-70
2023/05/26 03:21:09;;;;;;;17.77;7.53;;;13.30;99.90;;;;;;5039280;28;20450;-70
2023/05/26 03:23:54;;;;;;;11.73;7.80;;;13.10;99.90;;;;;;5048632;28;20460;-70
2023/05/26 03:26:41;;;;;;;11.83;8.37;;;13.20;99.90;;;;;;5049424;28;21109;-70
2023/05/26 03:29:27;;;;;;;13.40;8.20;;;13.20;99.90;;;;;;5047415;28;20441;-70
2023/05/26 03:32:12;;;;;;;13.57;8.17;;;13.20;99.90;;;;;;5043059;28;20429;-70
2023/05/26 03:34:58;;;;;;;17.77;8.40;;;12.90;99.90;;;;;;5044794;28;20465;-70
2023/05/26 03:37:43;;;;;;;18.80;8.53;;;12.90;99.90;;;;;;5047128;28;20413;-70
2023/05/26 03:40:29;;;;;;;15.73;8.47;;;12.80;99.90;;;;;;5049184;28;20454;-70
2023/05/26 03:43:16;;;;;;;15.00;8.80;;;12.80;99.90;;;;;;5047787;28;20930;-70
2023/05/26 03:46:01;;;;;;;12.67;8.53;;;12.80;99.90;;;;;;5048976;28;20462;-70
2023/05/26 03:48:47;;;;;;;14.70;8.90;;;12.80;99.90;;;;;;5043766;28;20472;-70
2023/05/26 03:51:33;;;;;;;12.20;8.63;;;12.90;99.90;;;;;;5045888;28;20442;-70
2023/05/26 03:54:18;;;;;;;12.83;8.20;;;13.00;99.90;;;;;;5050207;28;20456;-70
2023/05/26 03:57:04;;;;;;;17.87;8.77;;;13.00;99.90;;;;;;5045008;28;20492;-70
2023/05/26 03:59:51;;;;;;;12.70;10.20;;;13.10;99.90;;;;;;5048076;28;20795;-70
2023/05/26 04:02:36;;;;;;;15.07;8.50;;;13.30;99.90;;;;;;5050011;28;20823;-70
2023/05/26 04:05:22;;;;;;;15.70;9.30;;;13.40;99.90;;;;;;5042245;28;20466;-70
2023/05/26 04:08:07;;;;;;;13.93;9.17;;;13.50;99.90;;;;;;5038995;28;20492;-70
2023/05/26 04:10:53;;;;;;;14.50;8.90;;;13.60;99.90;;;;;;5046440;28;20450;-70
2023/05/26 04:13:39;;;;;;;14.30;9.30;;;13.70;99.90;;;;;;5045020;28;20466;-70
2023/05/26 04:16:26;;;;;;;12.70;8.60;;;13.70;99.90;;;;;;5038687;28;20458;-70
2023/05/26 04:19:11;;;;;;;17.83;8.80;;;13.80;99.90;;;;;;5041482;28;20784;-70
2023/05/26 04:21:57;;;;;;;19.70;9.10;;;13.70;99.90;;;;;;5047267;28;20438;-70
2023/05/26 04:24:43;;;;;;;15.57;9.30;;;13.70;99.90;;;;;;5046948;28;20453;-70
2023/05/26 04:27:28;;;;;;;21.70;8.50;;;13.70;99.90;;;;;;5044135;28;20445;-70
2023/05/26 04:30:16;;;;;;;13.93;9.10;;;13.70;99.90;;;;;;5047918;28;20902;-70
2023/05/26 04:33:03;;;;;;;18.20;8.57;;;13.70;99.90;;;;;;5043298;28;20415;-70
2023/05/26 04:35:49;;;;;;;11.50;8.77;;;13.70;99.90;;;;;;5045469;28;20451;-69
2023/05/26 04:38:34;;;;;;;14.03;8.10;;;13.70;99.90;;;;;;5044180;28;20439;-69
2023/05/26 04:41:20;;;;;;;17.10;10.07;;;13.80;99.90;;;;;;5046160;28;20923;-69
2023/05/26 04:44:05;;;;;;;13.10;8.00;;;13.90;99.90;;;;;;5040824;28;20446;-70
2023/05/26 04:46:52;;;;;;;18.00;9.27;;;13.90;99.90;;;;;;5042444;28;20467;-70
2023/05/26 04:49:40;;;;;;;11.10;8.27;;;14.00;99.90;;;;;;5044686;28;20444;-70
2023/05/26 04:52:25;;;;;;;12.00;7.73;;;14.00;99.90;;;;;;5043552;28;20450;-70
2023/05/26 04:55:10;;;;;;;14.70;8.60;;;14.10;99.90;;;;;;5045787;28;20469;-70
2023/05/26 04:57:56;;;;;;;23.60;9.17;;;14.20;99.90;;;;;;5040682;28;20440;-70
2023/05/26 05:00:42;;;;;;;16.87;8.47;;;14.20;99.90;;;;;;5043522;28;20461;-70
2023/05/26 05:03:28;;;;;;;15.33;8.10;;;14.30;99.90;;;;;;5045635;28;20469;-70
2023/05/26 05:06:15;;;;;;;14.43;9.00;;;14.30;99.90;;;;;;5044314;28;20515;-70
2023/05/26 05:09:01;;;;;;;14.23;8.20;;;14.40;99.90;;;;;;5045239;28;20526;-70
2023/05/26 05:11:46;;;;;;;15.37;7.80;;;14.40;99.90;;;;;;5048044;28;20446;-70
2023/05/26 05:14:31;;;;;;;14.70;8.23;;;14.50;99.90;;;;;;5047165;28;20496;-70
2023/05/26 05:17:18;;;;;;;13.40;8.70;;;14.50;99.90;;;;;;5039836;28;20581;-70
2023/05/26 05:20:04;;;;;;;12.33;7.97;;;14.60;99.90;;;;;;5047072;28;20442;-70
2023/05/26 05:22:51;;;;;;;13.20;8.17;;;14.60;99.90;;;;;;5045368;28;20566;-70
2023/05/26 05:25:36;;;;;;;13.27;7.43;;;14.70;99.90;;;;;;5039802;28;20465;-70
2023/05/26 05:28:22;;;;;;;15.17;7.90;;;14.80;99.90;;;;;;5046531;28;20546;-70
2023/05/26 05:31:07;;;;;;;15.10;8.40;;;14.90;99.90;;;;;;5045028;28;20980;-70
2023/05/26 05:33:53;;;;;;;13.83;9.03;;;15.00;99.90;;;;;;5045272;28;20809;-70
2023/05/26 05:36:38;;;;;;;12.77;7.97;;;15.00;99.90;;;;;;5035633;28;20462;-70
2023/05/26 05:39:26;;;;;;;15.50;8.00;;;15.10;99.90;;;;;;5045077;28;20492;-70
2023/05/26 05:42:11;;;;;;;12.40;8.17;;;15.30;99.90;;;;;;5038055;28;20533;-70
2023/05/26 05:44:56;;;;;;;11.97;7.70;;;15.30;99.90;;;;;;5046779;28;20629;-70
2023/05/26 05:47:42;;;;;;;13.63;8.10;;;15.40;99.90;;;;;;5049215;28;20410;-70
2023/05/26 05:50:27;;;;;;;12.33;8.50;;;15.40;99.90;;;;;;5051625;28;20483;-70
2023/05/26 05:53:13;;;;;;;11.97;7.70;;;15.40;99.90;;;;;;5052522;28;20420;-70
2023/05/26 05:56:00;;;;;;;16.30;8.77;;;15.50;99.90;;;;;;5044294;28;20607;-70
2023/05/26 05:58:45;;;;;;;15.57;8.13;;;15.60;99.90;;;;;;5046383;28;20510;-70
2023/05/26 06:01:30;;;;;;;12.47;7.70;;;15.60;99.90;;;;;;5051589;28;20517;-70
2023/05/26 06:04:16;;;;;;;14.93;8.67;;;15.60;99.90;;;;;;5050733;28;21076;-70
2023/05/26 06:07:02;;;;;;;14.67;7.30;;;15.60;99.90;;;;;;5047401;28;20447;-70
2023/05/26 06:09:47;;;;;;;14.50;8.00;;;15.70;99.90;;;;;;5052243;28;20506;-70
2023/05/26 06:12:34;;;;;;;12.30;8.20;;;15.80;99.90;;;;;;5045437;28;20916;-70
2023/05/26 06:15:20;;;;;;;16.20;8.07;;;15.80;99.90;;;;;;5046332;28;20869;-70
2023/05/26 06:18:06;;;;;;;14.37;7.80;;;16.00;99.90;;;;;;5043606;28;20460;-70
2023/05/26 06:20:51;;;;;;;14.43;7.60;;;16.10;99.90;;;;;;5049529;28;20448;-70
2023/05/26 06:23:36;;;;;;;11.37;7.70;;;16.10;99.90;;;;;;5052176;28;20967;-70
2023/05/26 06:26:22;;;;;;;16.47;7.80;;;16.10;99.90;;;;;;5045225;28;20471;-70
2023/05/26 06:29:09;;;;;;;11.03;7.50;;;16.30;99.90;;;;;;5047962;28;20628;-70
2023/05/26 06:31:55;;;;;;;19.97;8.37;;;16.30;99.90;;;;;;5047094;28;20494;-70
2023/05/26 06:34:40;;;;;;;15.40;8.23;;;16.30;99.90;;;;;;5050471;28;20428;-70
2023/05/26 06:37:26;;;;;;;13.53;7.67;;;16.40;99.90;;;;;;5046287;28;20429;-70
2023/05/26 06:40:13;;;;;;;15.60;7.17;;;16.50;99.90;;;;;;5043032;28;20497;-70
2023/05/26 06:42:58;;;;;;;13.83;7.67;;;16.50;99.90;;;;;;5048966;28;20443;-70
2023/05/26 06:45:45;;;;;;;13.47;8.93;;;16.60;99.90;;;;;;5049219;28;21024;-70
2023/05/26 06:48:30;;;;;;;17.87;8.50;;;16.60;99.90;;;;;;5051790;28;20529;-70
2023/05/26 06:51:16;;;;;;;9.53;7.37;;;16.60;99.90;;;;;;5046431;28;20435;-70
2023/05/26 06:54:01;;;;;;;18.40;8.23;;;16.80;97.80;;;;;;5049058;28;20960;-70
2023/05/26 06:56:47;;;;;;;15.03;7.80;;;16.80;98.80;;;;;;5044787;28;20466;-70
2023/05/26 06:59:33;;;;;;;16.57;8.27;;;16.80;99.20;;;;;;5047690;28;20463;-70
2023/05/26 07:02:19;;;;;;;13.93;9.40;;;16.90;99.70;;;;;;5045903;28;20446;-70
2023/05/26 07:05:06;;;;;;;10.00;7.23;;;17.00;97.80;;;;;;5046518;28;20468;-70
2023/05/26 07:07:52;;;;;;;16.93;8.30;;;17.10;96.80;;;;;;5044227;28;20454;-70
2023/05/26 07:10:37;;;;;;;16.80;7.67;;;17.00;96.00;;;;;;5046965;28;20448;-70
2023/05/26 07:13:23;;;;;;;13.17;7.60;;;17.00;96.50;;;;;;5045770;28;20577;-70
2023/05/26 07:16:08;;;;;;;12.80;7.03;;;17.00;95.30;;;;;;5046460;28;20500;-70
2023/05/26 07:18:55;;;;;;;15.90;8.50;;;17.10;94.80;;;;;;5046613;28;20591;-70
2023/05/26 07:21:40;;;;;;;14.90;7.47;;;17.20;96.30;;;;;;5035161;28;20479;-70
2023/05/26 07:24:26;;;;;;;15.70;7.57;;;17.30;95.20;;;;;;5038177;28;20503;-70
2023/05/26 07:27:12;;;;;;;10.33;6.67;;;17.30;95.20;;;;;;5044304;28;20417;-70
2023/05/26 07:29:57;;;;;;;13.53;6.83;;;17.50;94.70;;;;;;5044082;28;20471;-70
2023/05/26 07:32:43;;;;;;;11.80;7.67;;;17.60;94.30;;;;;;5038083;28;20526;-70
2023/05/26 07:35:29;;;;;;;14.50;8.00;;;17.70;93.80;;;;;;5044270;28;20534;-70
2023/05/26 07:38:15;;;;;;;16.13;7.57;;;17.70;94.00;;;;;;5045486;28;20436;-70
2023/05/26 07:41:00;;;;;;;11.90;8.10;;;17.80;93.60;;;;;;5044238;28;20442;-70
2023/05/26 07:43:46;;;;;;;13.90;7.43;;;17.90;92.90;;;;;;5041932;28;20483;-71
2023/05/26 07:46:32;;;;;;;11.00;6.40;;;18.00;92.40;;;;;;5043379;28;20475;-70
2023/05/26 07:49:17;;;;;;;11.70;7.03;;;18.00;92.90;;;;;;5046943;28;20482;-70
2023/05/26 07:52:04;;;;;;;14.83;7.17;;;18.00;90.50;;;;;;5044945;28;20491;-70
2023/05/26 07:54:50;;;;;;;14.73;7.80;;;18.10;90.30;;;;;;5039107;28;20906;-70
2023/05/26 07:57:35;;;;;;;12.07;7.30;;;18.10;91.00;;;;;;5047694;28;20448;-70
2023/05/26 08:00:21;;;;;;;12.53;7.50;;;18.10;92.70;;;;;;5045089;28;20493;-70
2023/05/26 08:03:06;;;;;;;12.70;6.63;;;18.20;92.40;;;;;;5045853;28;20462;-70
2023/05/26 08:05:52;;;;;;;12.10;7.83;;;18.20;90.10;;;;;;5044361;28;21335;-70
2023/05/26 08:08:39;;;;;;;9.50;6.90;;;18.20;90.60;;;;;;5043394;28;20439;-70
2023/05/26 08:11:25;;;;;;;16.57;8.37;;;18.30;90.60;;;;;;5043530;28;20444;-69
2023/05/26 08:14:10;;;;;;;14.77;7.77;;;18.40;89.60;;;;;;5043313;28;22268;-70
2023/05/26 08:16:55;;;;;;;11.43;7.63;;;18.40;88.30;;;;;;5043656;28;20599;-70
2023/05/26 08:19:41;;;;;;;18.63;8.77;;;18.50;86.00;;;;;;5046109;28;20471;-70
2023/05/26 08:22:27;;;;;;;12.80;8.00;;;18.60;86.10;;;;;;5044145;28;20554;-70
2023/05/26 08:25:14;;;;;;;12.83;7.33;;;18.60;85.80;;;;;;5041840;28;20485;-70
2023/05/26 08:27:59;;;;;;;11.53;7.33;;;18.50;83.60;;;;;;5041689;28;20457;-69
2023/05/26 08:30:45;;;;;;;12.17;7.43;;;18.50;87.10;;;;;;5046170;28;21123;-70
2023/05/26 08:33:30;;;;;;;12.47;7.60;;;18.50;86.10;;;;;;5041184;28;20467;-70
2023/05/26 08:36:16;;;;;;;14.63;7.33;;;18.60;89.00;;;;;;5045254;28;20455;-70
2023/05/26 08:39:01;;;;;;;16.40;7.47;;;18.70;85.30;;;;;;5042077;28;20406;-70
2023/05/26 08:41:52;;;;;;;14.87;7.80;;;18.80;85.00;;;;;;5041176;28;20447;-70
2023/05/26 08:44:37;;;;;;;12.90;6.50;;;18.90;83.60;;;;;;5040648;28;20448;-70
2023/05/26 08:47:23;;;;;;;15.23;7.43;;;18.90;83.00;;;;;;5047316;28;20456;-70
2023/05/26 08:50:11;;;;;;;13.83;8.30;;;18.90;84.50;;;;;;5042198;28;20618;-70
2023/05/26 08:52:58;;;;;;;10.87;6.60;;;19.00;83.10;;;;;;5045393;28;20486;-70
2023/05/26 08:55:43;;;;;;;15.37;7.30;;;19.10;81.70;;;;;;5042773;28;20501;-70
2023/05/26 08:58:31;;;;;;;11.60;7.40;;;19.10;81.80;;;;;;5047756;28;20443;-70
2023/05/26 09:01:16;;;;;;;12.00;7.10;;;19.20;79.10;;;;;;5038659;28;20455;-70
2023/05/26 09:04:02;;;;;;;11.00;6.47;;;19.20;79.00;;;;;;5039604;28;20901;-70
2023/05/26 09:06:47;;;;;;;13.43;6.70;;;19.30;78.10;;;;;;5045875;28;20550;-70
2023/05/26 09:09:33;;;;;;;7.50;6.50;;;19.40;77.20;;;;;;5042526;28;20480;-70
2023/05/26 09:12:19;;;;;;;11.90;7.20;;;19.50;77.10;;;;;;5040195;28;20451;-70
2023/05/26 09:15:07;;;;;;;15.10;7.67;;;19.50;78.70;;;;;;5041385;28;20430;-70
2023/05/26 09:17:52;;;;;;;9.90;7.20;;;19.60;76.40;;;;;;5037375;28;20428;-71
2023/05/26 09:20:41;;;;;;;10.20;7.33;;;19.70;73.60;;;;;;5045841;28;20439;-71
2023/05/26 09:23:27;;;;;;;10.77;7.10;;;19.60;74.30;;;;;;5045994;28;20439;-71
2023/05/26 09:26:12;;;;;;;11.63;7.93;;;19.70;76.50;;;;;;5048868;28;20939;-71
2023/05/26 09:28:59;;;;;;;14.17;6.70;;;19.80;77.80;;;;;;5046701;28;21047;-71
2023/05/26 09:31:47;;;;;;;15.83;7.40;;;19.90;75.50;;;;;;5049682;28;20612;-71
2023/05/26 09:34:32;;;;;;;16.30;7.20;;;20.10;71.00;;;;;;5047441;28;20451;-71
2023/05/26 09:37:18;;;;;;;13.50;7.80;;;20.10;68.80;;;;;;5047922;28;20525;-70
2023/05/26 09:40:08;;;;;;;12.10;6.90;;;20.20;67.00;;;;;;5048480;28;20438;-71
2023/05/26 09:42:54;;;;;;;10.90;6.50;;;20.20;69.00;;;;;;5035419;28;20448;-70
2023/05/26 09:45:41;;;;;;;10.73;6.57;;;20.20;66.30;;;;;;5045113;28;20463;-72
2023/05/26 09:48:34;;;;;;;13.70;6.60;;;20.30;69.20;;;;;;5050976;28;20437;-70
2023/05/26 09:51:21;;;;;;;14.73;7.00;;;20.30;66.50;;;;;;5044016;28;20408;-72
2023/05/26 09:54:08;;;;;;;11.97;6.67;;;20.40;66.80;;;;;;5047750;28;20448;-73
2023/05/26 09:56:59;;;;;;;12.63;6.13;;;20.60;65.40;;;;;;5041431;28;20432;-73
2023/05/26 09:59:47;;;;;;;12.57;6.53;;;20.60;57.80;;;;;;5047335;28;20933;-72
2023/05/26 10:02:32;;;;;;;12.83;6.27;;;20.70;56.20;;;;;;5048928;28;20505;-72
2023/05/26 10:05:20;;;;;;;14.40;5.27;;;20.80;57.20;;;;;;5047778;28;20463;-72
2023/05/26 10:08:07;;;;;;;11.17;5.87;;;20.90;60.80;;;;;;5046347;28;20452;-72
2023/05/26 10:10:53;;;;;;;10.67;6.20;;;21.00;55.20;;;;;;5046255;28;20482;-72
2023/05/26 10:13:39;;;;;;;10.50;5.27;;;21.10;47.70;;;;;;5044415;28;20542;-72
2023/05/26 10:16:25;;;;;;;11.70;5.77;;;21.20;46.80;;;;;;5048922;28;20495;-72
2023/05/26 10:19:10;;;;;;;10.70;5.90;;;21.30;48.40;;;;;;5048510;28;20992;-72
2023/05/26 10:22:05;;;;;;;13.93;6.00;;;21.30;47.90;;;;;;5052698;28;20919;-72
2023/05/26 10:24:56;;;;;;;14.70;6.83;;;21.30;49.70;;;;;;5048729;28;20662;-72
2023/05/26 10:27:47;;;;;;;15.07;6.77;;;21.30;51.30;;;;;;5044949;28;20793;-73
2023/05/26 10:30:33;;;;;;;11.50;5.73;;;21.40;55.90;;;;;;5051486;28;20531;-72
2023/05/26 10:33:19;;;;;;;8.50;6.17;;;21.50;52.40;;;;;;5056809;28;20780;-72
2023/05/26 10:36:08;;;;;;;11.07;6.90;;;21.60;48.60;;;;;;5050344;28;20506;-72
2023/05/26 10:38:55;;;;;;;12.13;5.33;;;21.70;50.30;;;;;;5050517;28;20452;-72
2023/05/26 10:41:48;;;;;;;15.13;6.13;;;21.70;47.90;;;;;;5040388;28;20489;-72
2023/05/26 10:44:41;;;;;;;13.80;6.77;;;21.70;49.40;;;;;;5048814;28;20444;-72
2023/05/26 10:47:30;;;;;;;16.73;7.30;;;21.70;51.30;;;;;;5047221;28;20609;-72
2023/05/26 10:50:15;;;;;;;10.77;5.97;;;21.80;45.60;;;;;;5048069;28;20471;-72
2023/05/26 10:53:01;;;;;;;9.10;5.67;;;21.70;49.40;;;;;;5039213;28;20449;-71
2023/05/26 10:55:55;;;;;;;12.03;6.63;;;21.70;46.00;;;;;;5040745;28;20543;-69
2023/05/26 10:58:45;;;;;;;14.77;6.23;;;21.80;48.10;;;;;;5047246;28;20515;-71
2023/05/26 11:01:32;;;;;;;9.70;5.80;;;21.90;47.30;;;;;;5048957;28;20452;-72
2023/05/26 11:04:18;;;;;;;9.23;5.73;;;22.00;43.20;;;;;;5046286;28;20425;-69
2023/05/26 11:07:04;;;;;;;9.30;6.17;;;22.10;45.00;;;;;;5045618;28;20456;-69
2023/05/26 11:09:58;;;;;;;14.10;6.00;;;22.20;44.30;;;;;;5041197;28;20537;-71
2023/05/26 11:12:54;;;;;;;13.10;6.70;;;22.30;41.10;;;;;;5044735;28;20502;-70
2023/05/26 11:15:40;;;;;;;8.83;5.00;;;22.40;37.30;;;;;;5044614;28;20573;-70
2023/05/26 11:18:27;;;;;;;8.70;5.57;;;22.30;41.00;;;;;;5043204;28;20456;-70
2023/05/26 11:21:13;;;;;;;13.60;5.77;;;22.40;37.50;;;;;;5042322;28;20456;-70
2023/05/26 11:24:00;;;;;;;14.80;6.50;;;22.50;40.00;;;;;;5042295;28;20467;-70
2023/05/26 11:26:45;;;;;;;9.50;6.63;;;22.50;37.30;;;;;;5046296;28;20542;-70
2023/05/26 11:29:32;;;;;;;13.47;5.93;;;22.60;38.00;;;;;;5047092;28;20442;-71
2023/05/26 11:32:18;;;;;;;9.23;5.93;;;22.70;36.80;;;;;;5044101;28;20456;-69
2023/05/26 11:35:03;;;;;;;10.40;5.70;;;22.70;37.10;;;;;;5048970;28;20540;-71
2023/05/26 11:37:49;;;;;;;13.00;5.33;;;22.80;37.50;;;;;;5043982;28;20472;-69
2023/05/26 11:40:35;;;;;;;11.87;6.00;;;22.80;36.60;;;;;;5048795;28;20448;-71
2023/05/26 11:43:24;;;;;;;9.80;6.43;;;22.80;33.70;;;;;;5043636;28;20455;-70
2023/05/26 11:46:12;;;;;;;7.63;5.00;;;22.90;38.30;;;;;;5045337;28;20468;-72
2023/05/26 11:48:57;;;;;;;15.60;7.23;;;23.00;32.40;;;;;;5045053;28;20876;-71
2023/05/26 11:51:47;;;;;;;10.13;5.83;;;23.10;34.80;;;;;;5046632;28;20666;-72
2023/05/26 11:54:33;;;;;;;7.30;5.00;;;23.20;33.80;;;;;;5047163;28;20547;-70
2023/05/26 11:57:26;;;;;;;17.73;7.40;;;23.20;33.60;;;;;;5039788;28;20456;-72
2023/05/26 12:00:14;;;;;;;16.47;5.17;;;23.20;31.40;;;;;;5045950;28;21039;-71
2023/05/26 12:03:01;;;;;;;12.90;5.10;;;23.20;33.00;;;;;;5044604;28;20876;-71
2023/05/26 12:05:47;;;;;;;6.63;5.20;;;23.30;31.40;;;;;;5043703;28;20459;-72
2023/05/26 12:08:43;;;;;;;8.37;5.10;;;23.40;31.60;;;;;;5046329;28;20448;-72
2023/05/26 12:11:33;;;;;;;10.70;4.83;;;23.60;30.70;;;;;;5048872;28;20479;-72
2023/05/26 12:14:21;;;;;;;10.20;5.60;;;23.70;29.40;;;;;;5048019;28;20439;-72
2023/05/26 12:17:12;;;;;;;9.93;5.83;;;23.70;30.90;;;;;;5042376;28;20820;-73
2023/05/26 12:19:59;;;;;;;9.47;5.20;;;23.70;29.50;;;;;;5043792;28;20456;-73
2023/05/26 12:22:44;;;;;;;7.90;4.33;;;23.80;30.40;;;;;;5041537;28;21014;-73
2023/05/26 12:25:31;;;;;;;9.90;5.10;;;24.00;29.70;;;;;;5043092;28;21003;-73
2023/05/26 12:28:16;;;;;;;9.30;5.70;;;24.10;28.00;;;;;;5039871;28;20444;-72
2023/05/26 12:31:01;;;;;;;9.60;5.47;;;24.10;27.60;;;;;;5043003;28;20522;-72
2023/05/26 12:33:47;;;;;;;11.50;5.30;;;24.20;29.90;;;;;;5045635;28;20583;-72
2023/05/26 12:36:34;;;;;;;15.17;5.93;;;24.30;28.90;;;;;;5038892;28;20582;-72
2023/05/26 12:39:20;;;;;;;8.50;5.17;;;24.20;27.40;;;;;;5046025;28;20554;-72
2023/05/26 12:42:05;;;;;;;8.87;5.50;;;24.40;28.70;;;;;;5040062;28;20465;-72
2023/05/26 12:44:51;;;;;;;8.33;4.70;;;24.50;28.50;;;;;;5040478;28;21045;-73
2023/05/26 12:47:38;;;;;;;14.90;5.50;;;24.60;27.90;;;;;;5044214;28;20451;-72
2023/05/26 12:50:23;;;;;;;11.17;4.83;;;24.70;25.30;;;;;;5045749;28;20834;-72
2023/05/26 12:53:10;;;;;;;8.63;5.87;;;24.70;25.60;;;;;;5044541;28;20567;-71
2023/05/26 12:55:56;;;;;;;10.93;5.07;;;24.70;26.60;;;;;;5042781;28;20464;-71
2023/05/26 12:58:41;;;;;;;8.50;5.10;;;24.80;25.90;;;;;;5041135;28;20447;-69
2023/05/26 13:01:27;;;;;;;9.90;5.43;;;24.80;25.40;;;;;;5043313;28;20460;-71
2023/05/26 13:04:12;;;;;;;8.33;5.23;;;24.80;24.60;;;;;;5046332;28;20976;-70
2023/05/26 13:06:58;;;;;;;8.97;5.30;;;25.00;25.10;;;;;;5042498;28;20451;-70
2023/05/26 13:09:46;;;;;;;16.83;6.03;;;25.00;24.00;;;;;;5041405;28;20445;-71
2023/05/26 13:12:32;;;;;;;13.43;5.93;;;25.00;24.50;;;;;;5047444;28;20479;-71
2023/05/26 13:15:18;;;;;;;12.20;6.23;;;25.00;24.70;;;;;;5043334;28;20979;-71
2023/05/26 13:18:03;;;;;;;9.23;4.80;;;25.10;24.90;;;;;;5039280;28;20588;-71
2023/05/26 13:20:49;;;;;;;10.87;4.80;;;25.10;26.00;;;;;;5043944;28;20444;-68
2023/05/26 13:23:35;;;;;;;12.80;6.17;;;25.30;24.30;;;;;;5039244;28;20444;-70
2023/05/26 13:26:21;;;;;;;11.10;5.30;;;25.40;23.20;;;;;;5035285;28;20551;-70
2023/05/26 13:29:09;;;;;;;15.63;6.23;;;25.50;23.00;;;;;;5043009;28;20914;-71
2023/05/26 13:31:55;;;;;;;10.60;5.13;;;25.40;23.70;;;;;;5042748;28;20471;-70
2023/05/26 13:34:40;;;;;;;11.30;5.13;;;25.40;21.90;;;;;;5041836;28;20448;-70
2023/05/26 13:37:26;;;;;;;8.17;5.33;;;25.40;22.50;;;;;;5041312;28;20451;-70
2023/05/26 13:40:12;;;;;;;8.00;4.40;;;25.50;22.20;;;;;;5042827;28;20563;-70
2023/05/26 13:42:59;;;;;;;5.37;4.87;;;25.50;21.70;;;;;;5043693;28;21008;-70
2023/05/26 13:45:44;;;;;;;11.07;4.47;;;25.60;21.20;;;;;;5042501;28;21060;-71
2023/05/26 13:48:30;;;;;;;16.57;5.80;;;25.60;21.50;;;;;;5047854;28;20529;-70
2023/05/26 13:51:16;;;;;;;10.87;5.10;;;25.70;20.40;;;;;;5040982;28;20491;-70
2023/05/26 13:54:02;;;;;;;11.03;4.90;;;25.70;20.80;;;;;;5045362;28;20441;-70
2023/05/26 13:56:47;;;;;;;10.20;5.10;;;25.70;22.10;;;;;;5045231;28;20460;-70
2023/05/26 13:59:34;;;;;;;8.47;5.50;;;25.70;19.40;;;;;;5048666;28;20498;-70
2023/05/26 14:02:20;;;;;;;11.27;5.53;;;25.30;21.30;;;;;;5045664;28;20444;-70
2023/05/26 14:05:06;;;;;;;10.30;4.90;;;25.40;20.60;;;;;;5039833;28;20513;-70
2023/05/26 14:07:51;;;;;;;8.63;4.97;;;25.50;22.20;;;;;;5047994;28;20460;-70
2023/05/26 14:10:37;;;;;;;11.07;4.60;;;25.70;21.30;;;;;;5052508;28;20490;-70
2023/05/26 14:13:22;;;;;;;11.27;5.60;;;25.80;21.10;;;;;;5047479;28;20451;-71
2023/05/26 14:16:09;;;;;;;8.80;4.47;;;25.90;19.60;;;;;;5043266;28;20843;-70